sensor_id;sensor_type;location;lat;lon;timestamp;P1;durP1;ratioP1;P2;durP2;ratioP2
40339;SDS011;26044;50.864;20.658;2022-11-25T00:01:13;63.15;;;27.50;;
40339;SDS011;26044;50.864;20.658;2022-11-25T00:03:44;62.67;;;27.48;;
40339;SDS011;26044;50.864;20.658;2022-11-25T00:06:17;59.35;;;25.83;;
40339;SDS011;26044;50.864;20.658;2022-11-25T00:08:49;61.60;;;25.85;;
40339;SDS011;26044;50.864;20.658;2022-11-25T00:11:18;64.28;;;27.95;;
40339;SDS011;26044;50.864;20.658;2022-11-25T00:13:46;62.15;;;25.80;;
40339;SDS011;26044;50.864;20.658;2022-11-25T00:16:14;61.92;;;25.73;;
40339;SDS011;26044;50.864;20.658;2022-11-25T00:18:44;64.75;;;27.10;;
40339;SDS011;26044;50.864;20.658;2022-11-25T00:21:13;61.05;;;27.10;;
40339;SDS011;26044;50.864;20.658;2022-11-25T00:23:41;60.03;;;26.75;;
40339;SDS011;26044;50.864;20.658;2022-11-25T00:26:08;68.10;;;28.63;;
40339;SDS011;26044;50.864;20.658;2022-11-25T00:28:37;71.22;;;30.13;;
40339;SDS011;26044;50.864;20.658;2022-11-25T00:31:08;78.45;;;32.90;;
40339;SDS011;26044;50.864;20.658;2022-11-25T00:33:38;77.45;;;31.80;;
40339;SDS011;26044;50.864;20.658;2022-11-25T00:36:06;78.07;;;31.13;;
40339;SDS011;26044;50.864;20.658;2022-11-25T00:38:39;70.95;;;28.08;;
40339;SDS011;26044;50.864;20.658;2022-11-25T00:41:05;70.88;;;28.13;;
40339;SDS011;26044;50.864;20.658;2022-11-25T00:43:51;61.90;;;28.75;;
40339;SDS011;26044;50.864;20.658;2022-11-25T00:46:36;62.97;;;27.35;;
40339;SDS011;26044;50.864;20.658;2022-11-25T00:49:03;57.40;;;25.63;;
40339;SDS011;26044;50.864;20.658;2022-11-25T00:51:30;61.45;;;27.30;;
40339;SDS011;26044;50.864;20.658;2022-11-25T00:53:56;58.40;;;25.70;;
40339;SDS011;26044;50.864;20.658;2022-11-25T00:56:24;58.35;;;26.05;;
40339;SDS011;26044;50.864;20.658;2022-11-25T00:58:51;58.28;;;25.35;;
40339;SDS011;26044;50.864;20.658;2022-11-25T01:01:18;64.28;;;25.48;;
40339;SDS011;26044;50.864;20.658;2022-11-25T01:03:47;61.95;;;25.38;;
40339;SDS011;26044;50.864;20.658;2022-11-25T01:06:15;67.90;;;27.02;;
40339;SDS011;26044;50.864;20.658;2022-11-25T01:08:42;64.13;;;27.27;;
40339;SDS011;26044;50.864;20.658;2022-11-25T01:11:12;61.22;;;24.52;;
40339;SDS011;26044;50.864;20.658;2022-11-25T01:13:40;56.70;;;24.73;;
40339;SDS011;26044;50.864;20.658;2022-11-25T01:16:09;57.00;;;25.27;;
40339;SDS011;26044;50.864;20.658;2022-11-25T01:18:41;66.68;;;28.20;;
40339;SDS011;26044;50.864;20.658;2022-11-25T01:21:09;66.45;;;28.83;;
40339;SDS011;26044;50.864;20.658;2022-11-25T01:23:38;63.53;;;27.13;;
40339;SDS011;26044;50.864;20.658;2022-11-25T01:26:07;67.70;;;27.92;;
40339;SDS011;26044;50.864;20.658;2022-11-25T01:28:38;61.10;;;25.75;;
40339;SDS011;26044;50.864;20.658;2022-11-25T01:31:06;64.55;;;27.67;;
40339;SDS011;26044;50.864;20.658;2022-11-25T01:33:36;68.78;;;26.67;;
40339;SDS011;26044;50.864;20.658;2022-11-25T01:36:04;67.00;;;27.25;;
40339;SDS011;26044;50.864;20.658;2022-11-25T01:38:36;67.03;;;27.23;;
40339;SDS011;26044;50.864;20.658;2022-11-25T01:41:04;66.07;;;27.25;;
40339;SDS011;26044;50.864;20.658;2022-11-25T01:43:31;68.30;;;29.08;;
40339;SDS011;26044;50.864;20.658;2022-11-25T01:46:05;73.55;;;28.65;;
40339;SDS011;26044;50.864;20.658;2022-11-25T01:48:40;65.07;;;28.48;;
40339;SDS011;26044;50.864;20.658;2022-11-25T01:51:22;69.55;;;28.60;;
40339;SDS011;26044;50.864;20.658;2022-11-25T01:53:55;58.50;;;25.20;;
40339;SDS011;26044;50.864;20.658;2022-11-25T01:56:26;61.22;;;26.52;;
40339;SDS011;26044;50.864;20.658;2022-11-25T01:58:55;79.70;;;29.92;;
40339;SDS011;26044;50.864;20.658;2022-11-25T02:01:22;67.82;;;29.02;;
40339;SDS011;26044;50.864;20.658;2022-11-25T02:03:49;69.15;;;27.60;;
40339;SDS011;26044;50.864;20.658;2022-11-25T02:06:22;69.00;;;28.92;;
40339;SDS011;26044;50.864;20.658;2022-11-25T02:08:57;72.97;;;28.75;;
40339;SDS011;26044;50.864;20.658;2022-11-25T02:11:29;79.47;;;30.48;;
40339;SDS011;26044;50.864;20.658;2022-11-25T02:13:57;79.22;;;29.08;;
40339;SDS011;26044;50.864;20.658;2022-11-25T02:16:25;77.72;;;29.25;;
40339;SDS011;26044;50.864;20.658;2022-11-25T02:18:52;80.50;;;30.13;;
40339;SDS011;26044;50.864;20.658;2022-11-25T02:21:25;83.78;;;29.10;;
40339;SDS011;26044;50.864;20.658;2022-11-25T02:24:01;93.88;;;30.75;;
40339;SDS011;26044;50.864;20.658;2022-11-25T02:26:35;82.90;;;29.73;;
40339;SDS011;26044;50.864;20.658;2022-11-25T02:29:02;98.00;;;31.40;;
40339;SDS011;26044;50.864;20.658;2022-11-25T02:31:28;81.97;;;31.27;;
40339;SDS011;26044;50.864;20.658;2022-11-25T02:33:55;84.25;;;29.35;;
40339;SDS011;26044;50.864;20.658;2022-11-25T02:36:22;82.53;;;29.92;;
40339;SDS011;26044;50.864;20.658;2022-11-25T02:38:53;76.07;;;29.17;;
40339;SDS011;26044;50.864;20.658;2022-11-25T02:43:58;83.30;;;30.20;;
40339;SDS011;26044;50.864;20.658;2022-11-25T02:46:25;99.88;;;34.53;;
40339;SDS011;26044;50.864;20.658;2022-11-25T02:48:54;106.72;;;37.88;;
40339;SDS011;26044;50.864;20.658;2022-11-25T02:51:39;114.28;;;38.05;;
40339;SDS011;26044;50.864;20.658;2022-11-25T02:54:07;114.47;;;39.05;;
40339;SDS011;26044;50.864;20.658;2022-11-25T02:56:34;118.65;;;38.47;;
40339;SDS011;26044;50.864;20.658;2022-11-25T02:59:01;99.50;;;36.55;;
40339;SDS011;26044;50.864;20.658;2022-11-25T03:01:29;103.20;;;35.13;;
40339;SDS011;26044;50.864;20.658;2022-11-25T03:03:57;96.00;;;33.22;;
40339;SDS011;26044;50.864;20.658;2022-11-25T03:06:24;95.03;;;31.70;;
40339;SDS011;26044;50.864;20.658;2022-11-25T03:08:51;106.63;;;35.72;;
40339;SDS011;26044;50.864;20.658;2022-11-25T03:11:18;94.88;;;32.25;;
40339;SDS011;26044;50.864;20.658;2022-11-25T03:13:45;110.22;;;35.22;;
40339;SDS011;26044;50.864;20.658;2022-11-25T03:16:11;97.05;;;34.80;;
40339;SDS011;26044;50.864;20.658;2022-11-25T03:18:38;100.53;;;36.03;;
40339;SDS011;26044;50.864;20.658;2022-11-25T03:21:05;99.93;;;34.30;;
40339;SDS011;26044;50.864;20.658;2022-11-25T03:23:32;98.15;;;34.10;;
40339;SDS011;26044;50.864;20.658;2022-11-25T03:26:03;100.05;;;35.33;;
40339;SDS011;26044;50.864;20.658;2022-11-25T03:28:30;99.68;;;35.00;;
40339;SDS011;26044;50.864;20.658;2022-11-25T03:30:57;108.05;;;35.42;;
40339;SDS011;26044;50.864;20.658;2022-11-25T03:33:24;101.85;;;36.42;;
40339;SDS011;26044;50.864;20.658;2022-11-25T03:35:50;110.70;;;37.38;;
40339;SDS011;26044;50.864;20.658;2022-11-25T03:38:18;104.88;;;35.38;;
40339;SDS011;26044;50.864;20.658;2022-11-25T03:40:46;112.68;;;39.97;;
40339;SDS011;26044;50.864;20.658;2022-11-25T03:43:12;110.30;;;37.15;;
40339;SDS011;26044;50.864;20.658;2022-11-25T03:45:39;117.63;;;40.30;;
40339;SDS011;26044;50.864;20.658;2022-11-25T03:48:08;112.40;;;37.78;;
40339;SDS011;26044;50.864;20.658;2022-11-25T03:50:35;110.43;;;38.30;;
40339;SDS011;26044;50.864;20.658;2022-11-25T03:53:02;118.07;;;40.35;;
40339;SDS011;26044;50.864;20.658;2022-11-25T03:55:28;111.32;;;39.10;;
40339;SDS011;26044;50.864;20.658;2022-11-25T03:57:55;112.82;;;39.25;;
40339;SDS011;26044;50.864;20.658;2022-11-25T04:00:22;114.10;;;37.53;;
40339;SDS011;26044;50.864;20.658;2022-11-25T04:02:49;115.45;;;38.22;;
40339;SDS011;26044;50.864;20.658;2022-11-25T04:05:15;116.32;;;38.83;;
40339;SDS011;26044;50.864;20.658;2022-11-25T04:07:42;117.10;;;40.95;;
40339;SDS011;26044;50.864;20.658;2022-11-25T04:10:09;139.40;;;44.75;;
40339;SDS011;26044;50.864;20.658;2022-11-25T04:12:36;155.38;;;46.50;;
40339;SDS011;26044;50.864;20.658;2022-11-25T04:15:13;132.27;;;43.53;;
40339;SDS011;26044;50.864;20.658;2022-11-25T04:17:41;125.25;;;44.45;;
40339;SDS011;26044;50.864;20.658;2022-11-25T04:20:07;128.30;;;42.35;;
40339;SDS011;26044;50.864;20.658;2022-11-25T04:22:35;133.27;;;46.45;;
40339;SDS011;26044;50.864;20.658;2022-11-25T04:25:02;131.85;;;44.40;;
40339;SDS011;26044;50.864;20.658;2022-11-25T04:27:29;125.13;;;41.03;;
40339;SDS011;26044;50.864;20.658;2022-11-25T04:29:56;120.25;;;42.13;;
40339;SDS011;26044;50.864;20.658;2022-11-25T04:32:23;128.75;;;43.47;;
40339;SDS011;26044;50.864;20.658;2022-11-25T04:34:50;135.23;;;43.42;;
40339;SDS011;26044;50.864;20.658;2022-11-25T04:37:17;122.20;;;40.70;;
40339;SDS011;26044;50.864;20.658;2022-11-25T04:39:44;133.38;;;42.33;;
40339;SDS011;26044;50.864;20.658;2022-11-25T04:42:10;140.80;;;45.53;;
40339;SDS011;26044;50.864;20.658;2022-11-25T04:44:56;127.85;;;43.17;;
40339;SDS011;26044;50.864;20.658;2022-11-25T04:47:43;142.70;;;47.42;;
40339;SDS011;26044;50.864;20.658;2022-11-25T04:50:13;136.82;;;44.75;;
40339;SDS011;26044;50.864;20.658;2022-11-25T04:55:08;119.75;;;41.22;;
40339;SDS011;26044;50.864;20.658;2022-11-25T04:57:35;135.73;;;42.05;;
40339;SDS011;26044;50.864;20.658;2022-11-25T05:00:02;129.02;;;41.83;;
40339;SDS011;26044;50.864;20.658;2022-11-25T05:02:30;145.93;;;43.25;;
40339;SDS011;26044;50.864;20.658;2022-11-25T05:04:57;137.43;;;44.20;;
40339;SDS011;26044;50.864;20.658;2022-11-25T05:07:25;144.50;;;45.85;;
40339;SDS011;26044;50.864;20.658;2022-11-25T05:09:55;132.63;;;42.92;;
40339;SDS011;26044;50.864;20.658;2022-11-25T05:12:24;135.10;;;40.15;;
40339;SDS011;26044;50.864;20.658;2022-11-25T05:14:52;128.68;;;42.20;;
40339;SDS011;26044;50.864;20.658;2022-11-25T05:17:20;137.77;;;41.33;;
40339;SDS011;26044;50.864;20.658;2022-11-25T05:19:51;118.80;;;36.67;;
40339;SDS011;26044;50.864;20.658;2022-11-25T05:22:20;120.20;;;37.60;;
40339;SDS011;26044;50.864;20.658;2022-11-25T05:24:48;109.72;;;36.03;;
40339;SDS011;26044;50.864;20.658;2022-11-25T05:27:15;101.90;;;34.53;;
40339;SDS011;26044;50.864;20.658;2022-11-25T05:29:43;113.50;;;37.13;;
40339;SDS011;26044;50.864;20.658;2022-11-25T05:32:09;112.47;;;36.55;;
40339;SDS011;26044;50.864;20.658;2022-11-25T05:34:37;116.65;;;40.83;;
40339;SDS011;26044;50.864;20.658;2022-11-25T05:37:04;122.53;;;38.35;;
40339;SDS011;26044;50.864;20.658;2022-11-25T05:39:31;112.32;;;35.67;;
40339;SDS011;26044;50.864;20.658;2022-11-25T05:41:58;106.80;;;34.22;;
40339;SDS011;26044;50.864;20.658;2022-11-25T05:44:25;111.05;;;35.33;;
40339;SDS011;26044;50.864;20.658;2022-11-25T05:46:52;112.00;;;36.25;;
40339;SDS011;26044;50.864;20.658;2022-11-25T05:49:19;129.27;;;43.47;;
40339;SDS011;26044;50.864;20.658;2022-11-25T05:51:46;147.57;;;49.90;;
40339;SDS011;26044;50.864;20.658;2022-11-25T05:54:13;151.85;;;49.05;;
40339;SDS011;26044;50.864;20.658;2022-11-25T05:56:40;140.00;;;47.25;;
40339;SDS011;26044;50.864;20.658;2022-11-25T05:59:07;148.90;;;49.60;;
40339;SDS011;26044;50.864;20.658;2022-11-25T06:01:33;149.30;;;51.83;;
40339;SDS011;26044;50.864;20.658;2022-11-25T06:04:00;152.38;;;51.53;;
40339;SDS011;26044;50.864;20.658;2022-11-25T06:06:28;153.48;;;49.28;;
40339;SDS011;26044;50.864;20.658;2022-11-25T06:08:56;202.35;;;59.63;;
40339;SDS011;26044;50.864;20.658;2022-11-25T06:11:22;196.52;;;60.58;;
40339;SDS011;26044;50.864;20.658;2022-11-25T06:13:50;187.70;;;61.38;;
40339;SDS011;26044;50.864;20.658;2022-11-25T06:16:18;177.68;;;56.00;;
40339;SDS011;26044;50.864;20.658;2022-11-25T06:18:47;144.10;;;47.75;;
40339;SDS011;26044;50.864;20.658;2022-11-25T06:21:14;186.57;;;56.13;;
40339;SDS011;26044;50.864;20.658;2022-11-25T06:23:41;158.48;;;52.88;;
40339;SDS011;26044;50.864;20.658;2022-11-25T06:26:18;114.10;;;39.53;;
40339;SDS011;26044;50.864;20.658;2022-11-25T06:28:46;117.13;;;39.63;;
40339;SDS011;26044;50.864;20.658;2022-11-25T06:31:14;103.90;;;34.63;;
40339;SDS011;26044;50.864;20.658;2022-11-25T06:33:45;99.07;;;34.05;;
40339;SDS011;26044;50.864;20.658;2022-11-25T06:36:13;91.60;;;33.53;;
40339;SDS011;26044;50.864;20.658;2022-11-25T06:38:46;106.40;;;34.72;;
40339;SDS011;26044;50.864;20.658;2022-11-25T06:41:14;104.70;;;36.03;;
40339;SDS011;26044;50.864;20.658;2022-11-25T06:43:41;101.15;;;32.60;;
40339;SDS011;26044;50.864;20.658;2022-11-25T06:46:12;103.82;;;35.85;;
40339;SDS011;26044;50.864;20.658;2022-11-25T06:48:48;103.10;;;32.47;;
40339;SDS011;26044;50.864;20.658;2022-11-25T06:51:15;115.53;;;36.38;;
40339;SDS011;26044;50.864;20.658;2022-11-25T06:53:42;99.82;;;31.83;;
40339;SDS011;26044;50.864;20.658;2022-11-25T06:56:17;93.13;;;32.25;;
40339;SDS011;26044;50.864;20.658;2022-11-25T06:58:44;96.55;;;32.67;;
40339;SDS011;26044;50.864;20.658;2022-11-25T07:01:16;103.65;;;34.05;;
40339;SDS011;26044;50.864;20.658;2022-11-25T07:03:48;93.30;;;35.22;;
40339;SDS011;26044;50.864;20.658;2022-11-25T07:06:18;103.13;;;33.20;;
40339;SDS011;26044;50.864;20.658;2022-11-25T07:08:46;118.40;;;38.53;;
40339;SDS011;26044;50.864;20.658;2022-11-25T07:11:15;99.38;;;34.20;;
40339;SDS011;26044;50.864;20.658;2022-11-25T07:13:47;104.00;;;34.22;;
40339;SDS011;26044;50.864;20.658;2022-11-25T07:16:16;104.30;;;33.45;;
40339;SDS011;26044;50.864;20.658;2022-11-25T07:18:43;102.63;;;33.65;;
40339;SDS011;26044;50.864;20.658;2022-11-25T07:23:38;97.82;;;31.73;;
40339;SDS011;26044;50.864;20.658;2022-11-25T07:26:07;101.00;;;31.33;;
40339;SDS011;26044;50.864;20.658;2022-11-25T07:28:36;102.03;;;34.47;;
40339;SDS011;26044;50.864;20.658;2022-11-25T07:31:07;96.85;;;32.38;;
40339;SDS011;26044;50.864;20.658;2022-11-25T07:33:58;109.00;;;32.17;;
40339;SDS011;26044;50.864;20.658;2022-11-25T07:36:27;107.32;;;36.60;;
40339;SDS011;26044;50.864;20.658;2022-11-25T07:38:56;95.70;;;32.50;;
40339;SDS011;26044;50.864;20.658;2022-11-25T07:41:24;93.22;;;34.53;;
40339;SDS011;26044;50.864;20.658;2022-11-25T07:43:57;108.15;;;35.67;;
40339;SDS011;26044;50.864;20.658;2022-11-25T07:46:27;113.00;;;34.40;;
40339;SDS011;26044;50.864;20.658;2022-11-25T07:49:01;104.60;;;38.20;;
40339;SDS011;26044;50.864;20.658;2022-11-25T07:51:30;116.00;;;37.38;;
40339;SDS011;26044;50.864;20.658;2022-11-25T07:54:00;108.28;;;37.22;;
40339;SDS011;26044;50.864;20.658;2022-11-25T07:56:28;102.05;;;35.58;;
40339;SDS011;26044;50.864;20.658;2022-11-25T07:58:55;109.82;;;34.50;;
40339;SDS011;26044;50.864;20.658;2022-11-25T08:01:22;111.40;;;38.30;;
40339;SDS011;26044;50.864;20.658;2022-11-25T08:03:50;114.53;;;36.90;;
40339;SDS011;26044;50.864;20.658;2022-11-25T08:06:19;111.00;;;38.22;;
40339;SDS011;26044;50.864;20.658;2022-11-25T08:08:48;112.28;;;38.55;;
40339;SDS011;26044;50.864;20.658;2022-11-25T08:11:20;115.20;;;38.63;;
40339;SDS011;26044;50.864;20.658;2022-11-25T08:13:51;119.00;;;36.92;;
40339;SDS011;26044;50.864;20.658;2022-11-25T08:16:19;114.03;;;37.63;;
40339;SDS011;26044;50.864;20.658;2022-11-25T08:18:48;120.70;;;40.30;;
40339;SDS011;26044;50.864;20.658;2022-11-25T08:21:15;116.85;;;41.17;;
40339;SDS011;26044;50.864;20.658;2022-11-25T08:23:43;139.95;;;42.15;;
40339;SDS011;26044;50.864;20.658;2022-11-25T08:26:17;132.88;;;42.90;;
40339;SDS011;26044;50.864;20.658;2022-11-25T08:28:49;120.53;;;40.75;;
40339;SDS011;26044;50.864;20.658;2022-11-25T08:31:17;136.60;;;44.00;;
40339;SDS011;26044;50.864;20.658;2022-11-25T08:34:01;135.30;;;40.78;;
40339;SDS011;26044;50.864;20.658;2022-11-25T08:36:29;150.00;;;46.30;;
40339;SDS011;26044;50.864;20.658;2022-11-25T08:38:57;133.50;;;41.85;;
40339;SDS011;26044;50.864;20.658;2022-11-25T08:41:30;150.30;;;44.92;;
40339;SDS011;26044;50.864;20.658;2022-11-25T08:43:59;127.22;;;40.92;;
40339;SDS011;26044;50.864;20.658;2022-11-25T08:46:28;125.85;;;41.80;;
40339;SDS011;26044;50.864;20.658;2022-11-25T08:48:58;130.05;;;41.85;;
40339;SDS011;26044;50.864;20.658;2022-11-25T08:51:28;135.93;;;39.75;;
40339;SDS011;26044;50.864;20.658;2022-11-25T08:53:57;135.60;;;40.47;;
40339;SDS011;26044;50.864;20.658;2022-11-25T08:56:25;122.45;;;37.75;;
40339;SDS011;26044;50.864;20.658;2022-11-25T08:58:53;124.60;;;37.80;;
40339;SDS011;26044;50.864;20.658;2022-11-25T09:01:21;127.22;;;40.15;;
40339;SDS011;26044;50.864;20.658;2022-11-25T09:03:49;142.55;;;41.08;;
40339;SDS011;26044;50.864;20.658;2022-11-25T09:06:17;141.85;;;44.55;;
40339;SDS011;26044;50.864;20.658;2022-11-25T09:08:44;145.55;;;43.08;;
40339;SDS011;26044;50.864;20.658;2022-11-25T09:11:12;148.23;;;44.85;;
40339;SDS011;26044;50.864;20.658;2022-11-25T09:13:40;135.82;;;44.17;;
40339;SDS011;26044;50.864;20.658;2022-11-25T09:16:07;153.82;;;42.33;;
40339;SDS011;26044;50.864;20.658;2022-11-25T09:18:34;165.18;;;51.03;;
40339;SDS011;26044;50.864;20.658;2022-11-25T09:21:09;169.05;;;49.05;;
40339;SDS011;26044;50.864;20.658;2022-11-25T09:23:38;133.82;;;43.35;;
40339;SDS011;26044;50.864;20.658;2022-11-25T09:26:05;123.15;;;39.97;;
40339;SDS011;26044;50.864;20.658;2022-11-25T09:28:33;136.90;;;40.15;;
40339;SDS011;26044;50.864;20.658;2022-11-25T09:31:06;125.78;;;40.95;;
40339;SDS011;26044;50.864;20.658;2022-11-25T09:33:34;152.60;;;48.30;;
40339;SDS011;26044;50.864;20.658;2022-11-25T09:36:02;123.40;;;38.15;;
40339;SDS011;26044;50.864;20.658;2022-11-25T09:38:31;131.25;;;38.88;;
40339;SDS011;26044;50.864;20.658;2022-11-25T09:43:55;106.55;;;36.38;;
40339;SDS011;26044;50.864;20.658;2022-11-25T09:46:54;123.40;;;38.75;;
40339;SDS011;26044;50.864;20.658;2022-11-25T09:49:37;104.72;;;35.67;;
40339;SDS011;26044;50.864;20.658;2022-11-25T09:52:18;119.60;;;39.33;;
40339;SDS011;26044;50.864;20.658;2022-11-25T09:55:04;119.93;;;39.60;;
40339;SDS011;26044;50.864;20.658;2022-11-25T10:00:25;94.88;;;34.53;;
40339;SDS011;26044;50.864;20.658;2022-11-25T10:06:00;97.82;;;33.20;;
40339;SDS011;26044;50.864;20.658;2022-11-25T10:08:39;101.05;;;33.97;;
40339;SDS011;26044;50.864;20.658;2022-11-25T10:11:33;101.05;;;35.15;;
40339;SDS011;26044;50.864;20.658;2022-11-25T10:14:10;99.15;;;35.08;;
40339;SDS011;26044;50.864;20.658;2022-11-25T10:16:47;105.82;;;35.40;;
40339;SDS011;26044;50.864;20.658;2022-11-25T10:19:41;104.60;;;37.58;;
40339;SDS011;26044;50.864;20.658;2022-11-25T10:22:32;100.57;;;34.22;;
40339;SDS011;26044;50.864;20.658;2022-11-25T10:25:11;100.45;;;33.28;;
40339;SDS011;26044;50.864;20.658;2022-11-25T10:27:45;105.25;;;35.75;;
40339;SDS011;26044;50.864;20.658;2022-11-25T10:30:26;115.00;;;38.60;;
40339;SDS011;26044;50.864;20.658;2022-11-25T10:35:56;96.65;;;36.40;;
40339;SDS011;26044;50.864;20.658;2022-11-25T10:41:01;106.40;;;37.17;;
40339;SDS011;26044;50.864;20.658;2022-11-25T10:43:30;115.25;;;41.33;;
40339;SDS011;26044;50.864;20.658;2022-11-25T10:54:34;116.70;;;41.05;;
40339;SDS011;26044;50.864;20.658;2022-11-25T10:56:55;122.90;;;42.78;;
40339;SDS011;26044;50.864;20.658;2022-11-25T10:59:30;117.57;;;38.97;;
40339;SDS011;26044;50.864;20.658;2022-11-25T11:04:56;112.30;;;39.28;;
40339;SDS011;26044;50.864;20.658;2022-11-25T11:07:26;119.57;;;40.28;;
40339;SDS011;26044;50.864;20.658;2022-11-25T11:10:06;122.63;;;39.03;;
40339;SDS011;26044;50.864;20.658;2022-11-25T11:13:08;126.13;;;38.70;;
40339;SDS011;26044;50.864;20.658;2022-11-25T11:20:46;97.72;;;35.42;;
40339;SDS011;26044;50.864;20.658;2022-11-25T11:23:15;107.35;;;34.95;;
40339;SDS011;26044;50.864;20.658;2022-11-25T11:25:43;100.22;;;33.45;;
40339;SDS011;26044;50.864;20.658;2022-11-25T11:28:25;106.78;;;35.15;;
40339;SDS011;26044;50.864;20.658;2022-11-25T11:30:56;101.35;;;33.15;;
40339;SDS011;26044;50.864;20.658;2022-11-25T11:36:32;92.80;;;31.85;;
40339;SDS011;26044;50.864;20.658;2022-11-25T11:45:10;83.40;;;32.15;;
40339;SDS011;26044;50.864;20.658;2022-11-25T11:50:44;79.28;;;29.92;;
40339;SDS011;26044;50.864;20.658;2022-11-25T11:53:50;84.80;;;28.00;;
40339;SDS011;26044;50.864;20.658;2022-11-25T11:59:09;83.63;;;29.98;;
40339;SDS011;26044;50.864;20.658;2022-11-25T12:04:45;97.30;;;33.83;;
40339;SDS011;26044;50.864;20.658;2022-11-25T12:12:52;100.95;;;35.05;;
40339;SDS011;26044;50.864;20.658;2022-11-25T12:15:34;99.63;;;34.38;;
40339;SDS011;26044;50.864;20.658;2022-11-25T12:21:02;98.38;;;30.85;;
40339;SDS011;26044;50.864;20.658;2022-11-25T12:26:50;85.35;;;30.80;;
40339;SDS011;26044;50.864;20.658;2022-11-25T12:29:27;88.72;;;29.20;;
40339;SDS011;26044;50.864;20.658;2022-11-25T12:34:49;88.30;;;31.27;;
40339;SDS011;26044;50.864;20.658;2022-11-25T12:37:31;95.65;;;34.05;;
40339;SDS011;26044;50.864;20.658;2022-11-25T12:40:07;101.50;;;33.40;;
40339;SDS011;26044;50.864;20.658;2022-11-25T12:42:42;103.03;;;35.03;;
40339;SDS011;26044;50.864;20.658;2022-11-25T12:45:15;108.72;;;35.90;;
40339;SDS011;26044;50.864;20.658;2022-11-25T12:47:47;99.03;;;32.92;;
40339;SDS011;26044;50.864;20.658;2022-11-25T12:50:15;95.45;;;34.45;;
40339;SDS011;26044;50.864;20.658;2022-11-25T12:55:22;101.57;;;34.13;;
40339;SDS011;26044;50.864;20.658;2022-11-25T12:57:55;98.03;;;33.92;;
40339;SDS011;26044;50.864;20.658;2022-11-25T13:00:51;88.93;;;32.30;;
40339;SDS011;26044;50.864;20.658;2022-11-25T13:09:37;84.32;;;31.88;;
40339;SDS011;26044;50.864;20.658;2022-11-25T13:15:40;83.70;;;30.33;;
40339;SDS011;26044;50.864;20.658;2022-11-25T13:18:11;94.60;;;30.95;;
40339;SDS011;26044;50.864;20.658;2022-11-25T13:25:45;96.97;;;34.03;;
40339;SDS011;26044;50.864;20.658;2022-11-25T13:46:28;94.78;;;31.45;;
40339;SDS011;26044;50.864;20.658;2022-11-25T13:48:59;88.05;;;32.35;;
40339;SDS011;26044;50.864;20.658;2022-11-25T13:51:26;100.68;;;32.80;;
40339;SDS011;26044;50.864;20.658;2022-11-25T13:53:57;93.40;;;34.92;;
40339;SDS011;26044;50.864;20.658;2022-11-25T13:56:31;96.55;;;34.17;;
40339;SDS011;26044;50.864;20.658;2022-11-25T14:01:37;101.70;;;32.60;;
40339;SDS011;26044;50.864;20.658;2022-11-25T14:04:06;98.70;;;33.63;;
40339;SDS011;26044;50.864;20.658;2022-11-25T14:06:57;93.88;;;32.88;;
40339;SDS011;26044;50.864;20.658;2022-11-25T14:09:45;89.80;;;32.25;;
40339;SDS011;26044;50.864;20.658;2022-11-25T14:12:40;89.10;;;31.35;;
40339;SDS011;26044;50.864;20.658;2022-11-25T14:27:02;96.32;;;34.83;;
40339;SDS011;26044;50.864;20.658;2022-11-25T14:32:02;97.50;;;35.05;;
40339;SDS011;26044;50.864;20.658;2022-11-25T14:40:29;99.38;;;35.85;;
40339;SDS011;26044;50.864;20.658;2022-11-25T14:43:04;97.53;;;33.67;;
40339;SDS011;26044;50.864;20.658;2022-11-25T14:45:37;98.55;;;36.55;;
40339;SDS011;26044;50.864;20.658;2022-11-25T14:53:44;107.38;;;37.70;;
40339;SDS011;26044;50.864;20.658;2022-11-25T14:56:14;109.18;;;40.22;;
40339;SDS011;26044;50.864;20.658;2022-11-25T14:58:47;102.32;;;35.33;;
40339;SDS011;26044;50.864;20.658;2022-11-25T15:01:20;118.60;;;42.15;;
40339;SDS011;26044;50.864;20.658;2022-11-25T15:03:50;130.70;;;44.28;;
40339;SDS011;26044;50.864;20.658;2022-11-25T15:06:27;125.47;;;43.33;;
40339;SDS011;26044;50.864;20.658;2022-11-25T15:08:58;124.88;;;41.90;;
40339;SDS011;26044;50.864;20.658;2022-11-25T15:11:26;122.60;;;39.55;;
40339;SDS011;26044;50.864;20.658;2022-11-25T15:14:03;122.57;;;40.30;;
40339;SDS011;26044;50.864;20.658;2022-11-25T15:16:32;146.15;;;46.00;;
40339;SDS011;26044;50.864;20.658;2022-11-25T15:19:05;134.50;;;40.75;;
40339;SDS011;26044;50.864;20.658;2022-11-25T15:21:41;160.95;;;43.33;;
40339;SDS011;26044;50.864;20.658;2022-11-25T15:24:30;140.05;;;46.92;;
40339;SDS011;26044;50.864;20.658;2022-11-25T15:27:13;190.48;;;60.55;;
40339;SDS011;26044;50.864;20.658;2022-11-25T15:29:43;201.68;;;66.70;;
40339;SDS011;26044;50.864;20.658;2022-11-25T15:32:14;188.23;;;61.22;;
40339;SDS011;26044;50.864;20.658;2022-11-25T15:34:44;172.23;;;52.40;;
40339;SDS011;26044;50.864;20.658;2022-11-25T15:37:12;191.10;;;55.50;;
40339;SDS011;26044;50.864;20.658;2022-11-25T15:39:39;183.05;;;56.10;;
40339;SDS011;26044;50.864;20.658;2022-11-25T15:42:06;200.77;;;58.53;;
40339;SDS011;26044;50.864;20.658;2022-11-25T15:47:22;253.70;;;80.72;;
40339;SDS011;26044;50.864;20.658;2022-11-25T15:49:59;296.05;;;82.55;;
40339;SDS011;26044;50.864;20.658;2022-11-25T15:52:29;264.48;;;77.95;;
40339;SDS011;26044;50.864;20.658;2022-11-25T15:55:00;237.13;;;71.53;;
40339;SDS011;26044;50.864;20.658;2022-11-25T15:57:31;241.73;;;65.00;;
40339;SDS011;26044;50.864;20.658;2022-11-25T16:05:13;257.55;;;72.07;;
40339;SDS011;26044;50.864;20.658;2022-11-25T16:15:58;266.23;;;77.55;;
40339;SDS011;26044;50.864;20.658;2022-11-25T16:21:07;296.90;;;74.03;;
40339;SDS011;26044;50.864;20.658;2022-11-25T16:23:44;276.70;;;77.00;;
40339;SDS011;26044;50.864;20.658;2022-11-25T16:26:24;294.23;;;78.88;;
40339;SDS011;26044;50.864;20.658;2022-11-25T16:29:36;265.92;;;79.13;;
40339;SDS011;26044;50.864;20.658;2022-11-25T16:32:12;258.05;;;71.28;;
40339;SDS011;26044;50.864;20.658;2022-11-25T16:34:40;255.63;;;72.07;;
40339;SDS011;26044;50.864;20.658;2022-11-25T16:37:09;256.48;;;66.60;;
40339;SDS011;26044;50.864;20.658;2022-11-25T16:39:36;244.90;;;64.25;;
40339;SDS011;26044;50.864;20.658;2022-11-25T16:42:04;260.20;;;61.03;;
40339;SDS011;26044;50.864;20.658;2022-11-25T16:44:32;251.20;;;62.80;;
40339;SDS011;26044;50.864;20.658;2022-11-25T16:47:01;230.32;;;63.20;;
40339;SDS011;26044;50.864;20.658;2022-11-25T16:49:29;233.45;;;64.13;;
40339;SDS011;26044;50.864;20.658;2022-11-25T16:51:56;263.10;;;63.83;;
40339;SDS011;26044;50.864;20.658;2022-11-25T16:54:23;252.02;;;68.45;;
40339;SDS011;26044;50.864;20.658;2022-11-25T16:56:51;244.32;;;66.57;;